الصفحة الرئيسية
METAR-TAF:

METAR-TAF

مطار :

هوبارت, أستراليا

دائرة عرض: 42-50S, خط طول: 147-29E, ارتفاع: 4 متر

مراقبة الطقس الحالي

تاريخ ووقت الإصدار 38 دقيقة قبل الساعة 01:00UTC
ريح 15 عقدة من الجنوب الغربي
درجة الحرارة 9°درجة مئوية
الرطوبة 71%
ضغط 1009 hPa
الرؤية 10 كم أو أكثر
غيوم قليلة على ارتفاع 2600 قدم
غيوم متفرقة على ارتفاع 3800 قدم

METAR: YMHB 180100Z 23015KT 9999 FEW026 SCT038 09/04 Q1009 RF00.0/000.0

زمن: 11:38 (01:38 UTC)

توقعات

تاريخ ووقت الإصدار 2ساعات و 10 دقيقة قبل الساعة 23:28UTC
التوقعات صالحة من18 الساعة 00 UTC إلى 19 الساعة 00 UTC
ريح 14 عقدة من الغرب/الجنوب الغربي
الرؤية 10 كم أو أكثر
غيوم متفرقة على ارتفاع 2500 قدم
غيوم مفككة على ارتفاع 3500 قدم
زخات من الأمطار الخفيفة
من 18 الساعة 1000 UTC
ريح 10 عقدة من الغرب/الشمال الغربي
الرؤية 10 كم أو أكثر
غيوم متفرقة على ارتفاع 4500 قدم
من 18 الساعة 1600 UTC
ريح 8 عقدة من الشمال الغربي
الرؤية 10 كم أو أكثر
الغيوم لا تقل 1500 م ولا وجود لمزنة ركامية السحاب الأسود

TAF: YMHB 172328Z 1800/1900 25014KT 9999 -SHRA SCT025 BKN035 FM181000 30010KT 9999 NSW SCT045 FM181600 31008KT CAVOK

أرصاد الطقس والتوقعات من أكثر من 4000 مطار (تقارير الطقس للمطار METAR والتنبؤ بالطقس بالمطارTAF).

المحطات المتاحة هي النقط الصفراء والحمراء على الخريطة.

حرك المؤشر فوق النقطة لمعرفة اسم المحطة.

ثم انقر لمعرفة أرصاد وتوقعات الطقس.

لتغيير الخارطة: اضغط على الأزرار الخضراء مع رمز الصليب الأسود للتكبير. على الزر الأخضر مع شرطة للتصغير، أو على الأسهم الخضراء للخرائط المجاورة.


METAR-TAF: